Time;durP1;ratioP1;P1;durP2;ratioP2;P2;SDS_P1;SDS_P2;PMS_P1;PMS_P2;Temp;Humidity;BMP_temperature;BMP_pressure;BME280_temperature;BME280_humidity;BME280_pressure;Samples;Min_cycle;Max_cycle;Signal;HPM_P1;HPM_P2
2022/02/25 00:02:11;;;;;;;44.88;17.02;;;;;;;8.81;75.21;101144.36;1889736;76;21062;-63
2022/02/25 00:04:39;;;;;;;45.05;16.85;;;;;;;8.81;75.20;101146.14;1880903;76;21038;-63
2022/02/25 00:07:08;;;;;;;52.43;16.87;;;;;;;8.79;75.17;101139.61;1853252;77;21148;-63
2022/02/25 00:09:38;;;;;;;52.33;17.75;;;;;;;8.78;75.15;101130.02;1853181;76;21093;-61
2022/02/25 00:12:07;;;;;;;44.63;17.00;;;;;;;8.77;75.14;101116.47;1853332;77;21053;-62
2022/02/25 00:14:35;;;;;;;39.67;15.23;;;;;;;8.74;75.12;101107.80;1853275;77;21045;-62
2022/02/25 00:17:05;;;;;;;41.40;15.08;;;;;;;8.73;75.15;101095.14;1853355;77;21172;-62
2022/02/25 00:19:33;;;;;;;45.98;16.60;;;;;;;8.73;75.24;101108.27;1879467;76;21026;-63
2022/02/25 00:22:02;;;;;;;41.60;15.18;;;;;;;8.69;75.26;101102.23;1885981;76;21057;-62
2022/02/25 00:24:31;;;;;;;49.45;17.20;;;;;;;8.71;75.24;101097.41;1886010;76;21120;-62
2022/02/25 00:27:00;;;;;;;45.50;15.78;;;;;;;8.67;75.25;101102.72;1886117;76;21030;-63
2022/02/25 00:29:29;;;;;;;41.15;17.20;;;;;;;8.65;75.27;101102.33;1886353;76;21476;-62
2022/02/25 00:31:58;;;;;;;42.58;16.23;;;;;;;8.64;75.28;101095.38;1886117;76;21030;-62
2022/02/25 00:34:26;;;;;;;41.92;15.88;;;;;;;8.65;75.25;101101.02;1885992;76;21549;-62
2022/02/25 00:36:55;;;;;;;42.25;15.25;;;;;;;8.65;75.21;101090.09;1886023;76;21086;-63
2022/02/25 00:39:24;;;;;;;45.43;15.85;;;;;;;8.65;75.15;101086.58;1886121;76;21038;-62
2022/02/25 00:41:52;;;;;;;44.25;15.30;;;;;;;8.63;75.19;101085.77;1886004;76;21183;-63
2022/02/25 00:44:21;;;;;;;46.68;17.02;;;;;;;8.61;75.30;101083.63;1886177;76;20990;-64
2022/02/25 00:46:50;;;;;;;42.30;15.65;;;;;;;8.59;75.35;101085.44;1886281;75;21034;-63
2022/02/25 00:49:19;;;;;;;41.98;16.20;;;;;;;8.59;75.32;101083.66;1886103;76;21034;-62
2022/02/25 00:51:47;;;;;;;42.08;16.65;;;;;;;8.61;75.26;101078.38;1886002;76;21058;-62
2022/02/25 00:54:16;;;;;;;43.63;16.65;;;;;;;8.60;75.21;101071.42;1885931;76;21014;-61
2022/02/25 00:56:45;;;;;;;47.45;17.15;;;;;;;8.61;75.18;101078.38;1885916;75;21101;-61
2022/02/25 00:59:14;;;;;;;39.33;15.63;;;;;;;8.59;75.18;101077.55;1886106;75;21023;-59
2022/02/25 01:01:43;;;;;;;44.90;15.83;;;;;;;8.57;75.14;101071.03;1886236;76;21092;-59
2022/02/25 01:04:13;;;;;;;41.60;15.15;;;;;;;8.56;75.10;101073.69;1886051;76;21185;-59
2022/02/25 01:06:43;;;;;;;39.98;14.95;;;;;;;8.56;75.06;101071.06;1885984;76;21484;-59
2022/02/25 01:09:12;;;;;;;46.60;16.20;;;;;;;8.56;75.08;101075.00;1890014;76;21456;-61
2022/02/25 01:11:41;;;;;;;43.85;15.20;;;;;;;8.53;75.21;101074.64;1891229;76;21092;-61
2022/02/25 01:14:10;;;;;;;49.60;17.45;;;;;;;8.55;75.18;101062.80;1891197;75;21041;-62
2022/02/25 01:16:39;;;;;;;48.13;15.18;;;;;;;8.55;75.13;101061.48;1890983;76;21523;-60
2022/02/25 01:19:07;;;;;;;35.15;15.00;;;;;;;8.54;75.11;101059.31;1891217;76;21546;-59
2022/02/25 01:21:36;;;;;;;41.88;15.43;;;;;;;8.51;75.15;101055.45;1891268;76;21156;-62
2022/02/25 01:24:05;;;;;;;39.15;14.58;;;;;;;8.48;75.26;101052.89;1891255;76;21170;-61
2022/02/25 01:26:34;;;;;;;41.90;14.80;;;;;;;8.40;75.44;101046.50;1891319;76;21518;-61
2022/02/25 01:29:03;;;;;;;44.65;15.38;;;;;;;8.40;75.46;101051.75;1891426;74;21053;-61
2022/02/25 01:31:32;;;;;;;39.73;15.40;;;;;;;8.39;75.50;101039.55;1887774;76;21033;-60
2022/02/25 01:34:00;;;;;;;38.48;15.35;;;;;;;8.39;75.52;101046.53;1885986;76;21079;-61
2022/02/25 01:36:29;;;;;;;47.25;16.15;;;;;;;8.33;75.57;101038.36;1886009;76;21144;-61
2022/02/25 01:39:02;;;;;;;43.95;15.60;;;;;;;8.30;75.65;101038.00;1886059;76;21042;-63
2022/02/25 01:41:30;;;;;;;41.28;15.40;;;;;;;8.28;75.78;101041.55;1886237;75;21046;-62
2022/02/25 01:44:13;;;;;;;38.98;14.90;;;;;;;8.28;75.72;101046.80;1886075;76;21042;-63
2022/02/25 01:46:43;;;;;;;36.55;13.18;;;;;;;8.30;75.65;101071.25;1886068;76;21042;-61
2022/02/25 01:49:12;;;;;;;43.38;16.12;;;;;;;8.28;75.58;101050.73;1886045;76;21629;-61
2022/02/25 01:51:41;;;;;;;40.52;14.15;;;;;;;8.27;75.68;101039.84;1886078;76;21046;-60
2022/02/25 01:54:10;;;;;;;39.03;14.60;;;;;;;8.25;75.70;101054.30;1886175;76;21034;-60
2022/02/25 01:56:40;;;;;;;37.50;14.15;;;;;;;8.25;75.62;101045.12;1889598;76;21132;-62
2022/02/25 01:59:10;;;;;;;41.13;15.08;;;;;;;8.26;75.62;101054.73;1891446;76;21029;-61
2022/02/25 02:01:41;;;;;;;38.00;14.80;;;;;;;8.27;75.53;101046.39;1891195;75;21128;-62
2022/02/25 02:04:11;;;;;;;36.00;14.38;;;;;;;8.26;75.54;101045.55;1887258;76;21058;-61
2022/02/25 02:06:40;;;;;;;36.75;14.65;;;;;;;8.27;75.51;101051.64;1886062;76;21054;-61
2022/02/25 02:09:10;;;;;;;33.02;13.40;;;;;;;8.27;75.57;101038.06;1886044;76;21132;-60
2022/02/25 02:11:45;;;;;;;36.58;13.75;;;;;;;8.26;75.58;101037.67;1886186;76;21498;-62
2022/02/25 02:14:17;;;;;;;37.88;13.75;;;;;;;8.25;75.60;101025.90;1886290;76;21090;-61
2022/02/25 02:16:48;;;;;;;35.95;13.68;;;;;;;8.19;75.71;101026.92;1886209;75;21163;-60
2022/02/25 02:19:18;;;;;;;41.70;15.93;;;;;;;8.19;75.75;101014.23;1885824;76;21507;-61
2022/02/25 02:21:50;;;;;;;33.33;12.60;;;;;;;8.19;75.73;101011.17;1886101;76;21038;-61
2022/02/25 02:24:20;;;;;;;40.88;14.23;;;;;;;8.16;75.76;101013.02;1886023;76;21038;-62
2022/02/25 02:26:51;;;;;;;36.10;15.40;;;;;;;8.11;75.85;101015.73;1886191;76;21018;-61
2022/02/25 02:29:20;;;;;;;42.70;14.25;;;;;;;8.11;75.79;101002.19;1890031;76;21530;-61
2022/02/25 02:31:49;;;;;;;35.78;13.13;;;;;;;8.10;75.73;100994.36;1891362;76;21558;-61
2022/02/25 02:34:19;;;;;;;29.35;12.20;;;;;;;8.11;75.62;101012.68;1891490;76;21475;-61
2022/02/25 02:36:48;;;;;;;30.37;12.23;;;;;;;8.10;75.55;101034.55;1891371;76;21034;-61
2022/02/25 02:39:17;;;;;;;32.78;13.20;;;;;;;8.09;75.55;101045.92;1891066;76;21088;-61
2022/02/25 02:41:46;;;;;;;36.48;13.43;;;;;;;8.06;75.57;101046.45;1891315;76;21061;-61
2022/02/25 02:44:15;;;;;;;38.23;14.95;;;;;;;8.02;75.61;101032.58;1891331;76;21115;-61
2022/02/25 02:46:44;;;;;;;41.42;14.18;;;;;;;8.01;75.59;101030.84;1891458;76;21476;-61
2022/02/25 02:49:13;;;;;;;43.45;16.87;;;;;;;8.02;75.57;101027.75;1891453;76;21095;-61
2022/02/25 02:51:42;;;;;;;49.33;15.90;;;;;;;7.98;75.63;101021.72;1891260;76;21464;-61
2022/02/25 02:54:11;;;;;;;43.65;15.48;;;;;;;7.98;75.62;101030.05;1887709;76;21484;-61
2022/02/25 02:56:40;;;;;;;37.25;12.78;;;;;;;7.98;75.57;101030.90;1885958;76;21195;-62
2022/02/25 02:59:08;;;;;;;33.88;12.30;;;;;;;7.99;75.50;101026.54;1886029;76;21037;-60
2022/02/25 03:01:38;;;;;;;46.02;16.62;;;;;;;7.97;75.57;101026.57;1886067;76;21034;-63
2022/02/25 03:04:06;;;;;;;44.10;15.00;;;;;;;7.95;75.59;101020.50;1886233;76;21504;-63
2022/02/25 03:06:35;;;;;;;46.45;15.28;;;;;;;7.97;75.54;101020.02;1886121;76;21026;-62
2022/02/25 03:09:04;;;;;;;43.23;16.42;;;;;;;7.95;75.55;101021.81;1886074;76;21033;-62
2022/02/25 03:11:33;;;;;;;46.25;16.48;;;;;;;7.92;75.57;101027.12;1890327;75;21077;-61
2022/02/25 03:14:03;;;;;;;51.00;17.07;;;;;;;7.91;75.59;101026.69;1897713;75;21488;-62
2022/02/25 03:16:32;;;;;;;38.33;14.28;;;;;;;7.90;75.60;101023.67;1904037;75;21075;-62
2022/02/25 03:19:01;;;;;;;34.43;12.13;;;;;;;7.91;75.58;101029.31;1904121;75;20989;-60
2022/02/25 03:21:29;;;;;;;42.95;15.60;;;;;;;7.90;75.57;101029.77;1904110;75;21110;-61
2022/02/25 03:23:58;;;;;;;39.13;14.53;;;;;;;7.88;75.59;101018.92;1903459;75;21032;-60
2022/02/25 03:26:27;;;;;;;36.45;14.03;;;;;;;7.88;75.61;101011.05;1904107;75;21459;-61
2022/02/25 03:28:55;;;;;;;36.45;14.18;;;;;;;7.84;75.69;101005.02;1904064;75;21005;-61
2022/02/25 03:31:24;;;;;;;36.58;13.18;;;;;;;7.84;75.75;101006.33;1904065;75;21037;-61
2022/02/25 03:33:53;;;;;;;30.70;12.73;;;;;;;7.84;75.75;100999.78;1903383;75;21094;-61
2022/02/25 03:36:22;;;;;;;31.75;13.30;;;;;;;7.85;75.71;101003.25;1904325;75;21037;-61
2022/02/25 03:38:50;;;;;;;38.75;14.45;;;;;;;7.82;75.75;101015.11;1904187;75;21571;-60
2022/02/25 03:41:19;;;;;;;35.80;15.48;;;;;;;7.82;75.71;101001.58;1897793;75;21136;-61
2022/02/25 03:43:48;;;;;;;39.48;13.05;;;;;;;7.82;75.73;100977.09;1895661;76;21045;-60
2022/02/25 03:46:17;;;;;;;38.88;13.40;;;;;;;7.79;75.83;100992.92;1895715;76;21189;-61
2022/02/25 03:48:46;;;;;;;35.05;12.53;;;;;;;7.80;75.89;101009.92;1895539;76;21009;-62
2022/02/25 03:51:14;;;;;;;40.98;14.45;;;;;;;7.79;75.83;101002.95;1896076;75;21053;-61
2022/02/25 03:53:43;;;;;;;40.15;15.20;;;;;;;7.78;75.85;101009.53;1895604;76;21061;-62
2022/02/25 03:56:12;;;;;;;30.92;13.03;;;;;;;7.78;75.85;101009.08;1895616;76;21038;-62
2022/02/25 03:58:42;;;;;;;35.00;13.70;;;;;;;7.78;75.82;101012.16;1900675;75;20993;-62
2022/02/25 04:01:11;;;;;;;40.35;13.95;;;;;;;7.78;75.87;101021.33;1904196;75;21111;-63
2022/02/25 04:03:40;;;;;;;34.53;12.78;;;;;;;7.72;76.02;101014.02;1904204;75;21037;-63
2022/02/25 04:06:08;;;;;;;37.03;13.90;;;;;;;7.71;76.06;101011.45;1903417;75;21138;-62
2022/02/25 04:08:37;;;;;;;34.10;13.05;;;;;;;7.70;76.04;101007.95;1904177;74;21154;-63
2022/02/25 04:11:06;;;;;;;43.25;15.90;;;;;;;7.66;76.13;100997.13;1904040;75;21115;-62
2022/02/25 04:13:34;;;;;;;38.65;14.45;;;;;;;7.66;76.12;100998.44;1895321;75;21057;-62
2022/02/25 04:16:03;;;;;;;41.70;14.83;;;;;;;7.66;76.06;100997.13;1895656;76;21049;-62
2022/02/25 04:18:32;;;;;;;43.25;15.20;;;;;;;7.65;76.12;100999.77;1895771;76;21061;-64
2022/02/25 04:21:01;;;;;;;35.63;13.28;;;;;;;7.65;76.15;101006.33;1890765;76;21050;-63
2022/02/25 04:23:31;;;;;;;45.15;14.90;;;;;;;7.66;76.16;100994.96;1881349;76;21090;-63
2022/02/25 04:26:00;;;;;;;46.65;14.38;;;;;;;7.66;76.09;101004.98;1881491;76;21030;-61
2022/02/25 04:28:28;;;;;;;43.38;14.83;;;;;;;7.70;76.04;101005.33;1881451;76;21063;-62
2022/02/25 04:30:57;;;;;;;38.85;15.48;;;;;;;7.74;75.96;101003.04;1882233;76;21044;-61
2022/02/25 04:33:26;;;;;;;37.40;15.32;;;;;;;7.77;75.93;100989.48;1881407;76;21161;-61
2022/02/25 04:35:55;;;;;;;41.33;15.20;;;;;;;7.74;75.98;100967.65;1881444;76;21010;-64
2022/02/25 04:38:23;;;;;;;42.83;15.93;;;;;;;7.73;76.04;100962.02;1881421;76;21015;-61
2022/02/25 04:40:52;;;;;;;41.42;14.80;;;;;;;7.72;76.10;100968.59;1881649;76;21033;-63
2022/02/25 04:43:21;;;;;;;39.48;15.85;;;;;;;7.71;76.17;100986.09;1881387;76;21116;-62
2022/02/25 04:45:50;;;;;;;55.58;20.05;;;;;;;7.68;76.19;100973.05;1884272;76;21500;-63
2022/02/25 04:48:19;;;;;;;46.53;17.77;;;;;;;7.69;76.18;100978.72;1895626;76;21037;-61
2022/02/25 04:50:48;;;;;;;35.60;14.80;;;;;;;7.69;76.17;100987.89;1895667;76;21089;-61
2022/02/25 04:53:17;;;;;;;37.35;13.85;;;;;;;7.69;76.18;100995.75;1895582;76;21166;-61
2022/02/25 04:55:46;;;;;;;49.73;17.37;;;;;;;7.67;76.17;100989.69;1894953;76;21048;-63
2022/02/25 04:58:16;;;;;;;39.13;14.70;;;;;;;7.69;76.15;100981.34;1895687;76;21484;-62
2022/02/25 05:00:45;;;;;;;42.80;15.45;;;;;;;7.67;76.23;100981.83;1895683;76;21021;-61
2022/02/25 05:03:15;;;;;;;36.70;13.85;;;;;;;7.67;76.27;100983.56;1895707;76;21025;-62
2022/02/25 05:05:43;;;;;;;43.33;15.45;;;;;;;7.66;76.27;100982.70;1895704;76;21037;-60
2022/02/25 05:08:12;;;;;;;23.02;8.98;;;;;;;7.64;76.31;100981.88;1895697;76;21099;-63
2022/02/25 05:10:41;;;;;;;35.30;13.83;;;;;;;7.62;76.32;100991.55;1888377;76;21109;-63
2022/02/25 05:13:10;;;;;;;36.42;15.03;;;;;;;7.58;76.36;100985.97;1875085;76;21162;-65
2022/02/25 05:21:11;;;;;;;45.60;15.95;;;;;;;7.58;76.40;100971.55;1895146;76;21058;-62
2022/02/25 05:24:00;;;;;;;47.75;16.15;;;;;;;7.62;76.33;100964.03;1907594;75;21603;-61
2022/02/25 05:26:29;;;;;;;44.30;17.57;;;;;;;7.64;76.22;100955.68;1926763;74;21253;-62
2022/02/25 05:28:59;;;;;;;48.70;18.15;;;;;;;7.68;76.11;100962.56;1907707;75;21503;-62
2022/02/25 05:31:28;;;;;;;41.23;16.60;;;;;;;7.71;76.04;100967.75;1907688;75;21130;-63
2022/02/25 05:33:56;;;;;;;54.18;18.60;;;;;;;7.75;75.97;100965.91;1907809;74;21099;-63
2022/02/25 05:36:25;;;;;;;39.70;15.88;;;;;;;7.77;75.93;100971.12;1907257;75;21036;-63
2022/02/25 05:38:55;;;;;;;40.38;16.02;;;;;;;7.81;75.80;100966.22;1907646;75;21090;-63
2022/02/25 05:41:24;;;;;;;36.03;14.33;;;;;;;7.83;75.70;100952.63;1906601;75;21565;-62
2022/02/25 05:43:52;;;;;;;44.35;15.78;;;;;;;7.85;75.61;100958.22;1898190;75;21036;-62
2022/02/25 05:46:21;;;;;;;38.60;14.35;;;;;;;7.86;75.56;100956.48;1907628;75;21153;-61
2022/02/25 05:48:50;;;;;;;41.18;16.45;;;;;;;7.86;75.56;100957.80;1907253;74;21102;-61
2022/02/25 05:51:19;;;;;;;39.60;15.70;;;;;;;7.86;75.53;100957.80;1906072;75;21043;-62
2022/02/25 05:53:48;;;;;;;36.98;14.58;;;;;;;7.87;75.49;100954.27;1906106;75;21526;-63
2022/02/25 05:56:17;;;;;;;40.43;15.18;;;;;;;7.84;75.44;100955.64;1906949;75;21114;-64
2022/02/25 05:58:46;;;;;;;38.25;14.87;;;;;;;7.82;75.41;100958.32;1906693;75;21130;-62
2022/02/25 06:01:15;;;;;;;42.48;17.35;;;;;;;7.80;75.31;100953.99;1906733;74;21159;-61
2022/02/25 06:03:43;;;;;;;34.58;13.75;;;;;;;7.78;75.25;100947.47;1906260;74;21148;-62
2022/02/25 06:06:12;;;;;;;45.90;18.42;;;;;;;7.77;75.21;100950.16;1906600;75;21109;-63
2022/02/25 06:08:41;;;;;;;38.17;15.85;;;;;;;7.74;75.14;100951.92;1906758;75;21025;-62
2022/02/25 06:11:10;;;;;;;42.13;16.62;;;;;;;7.71;75.08;100939.38;1907147;75;21095;-62
2022/02/25 06:13:38;;;;;;;32.05;14.90;;;;;;;7.72;75.07;100941.08;1906835;75;21455;-65
2022/02/25 06:16:08;;;;;;;36.83;14.65;;;;;;;7.70;75.00;100941.11;1907588;75;21503;-64
2022/02/25 06:18:38;;;;;;;37.55;14.38;;;;;;;7.72;74.89;100945.86;1907701;75;21052;-63
2022/02/25 06:21:07;;;;;;;35.17;14.78;;;;;;;7.69;74.84;100945.95;1907927;75;21029;-62
2022/02/25 06:23:36;;;;;;;35.60;13.90;;;;;;;7.66;74.75;100951.26;1902795;75;21116;-63
2022/02/25 06:26:05;;;;;;;31.35;12.95;;;;;;;7.65;74.67;100957.38;1899634;75;21097;-62
2022/02/25 06:28:34;;;;;;;30.72;11.80;;;;;;;7.63;74.59;100969.66;1899468;75;21135;-62
2022/02/25 06:31:03;;;;;;;39.33;16.45;;;;;;;7.59;74.47;100970.64;1899676;75;21099;-59
2022/02/25 06:33:32;;;;;;;38.30;16.65;;;;;;;7.54;74.45;100969.45;1899542;75;21068;-62
2022/02/25 06:36:01;;;;;;;65.00;28.50;;;;;;;7.54;74.39;100965.95;1899512;75;21459;-62
2022/02/25 06:38:30;;;;;;;49.93;19.42;;;;;;;7.56;74.40;100961.53;1899615;75;21033;-62
2022/02/25 06:40:59;;;;;;;49.55;21.93;;;;;;;7.57;74.38;100954.09;1899395;75;21095;-62
2022/02/25 06:43:27;;;;;;;55.52;28.20;;;;;;;7.58;74.34;100958.45;1899470;75;21034;-62
2022/02/25 06:45:56;;;;;;;40.33;14.80;;;;;;;7.60;74.25;100954.45;1899497;75;21148;-63
2022/02/25 06:48:25;;;;;;;41.28;18.35;;;;;;;7.62;74.20;100954.86;1899518;75;21078;-63
2022/02/25 06:50:54;;;;;;;41.63;16.27;;;;;;;7.61;74.09;100946.56;1899510;75;21102;-59
2022/02/25 06:53:22;;;;;;;39.45;16.02;;;;;;;7.62;74.06;100944.38;1893761;75;21045;-58
2022/02/25 06:55:51;;;;;;;44.83;20.45;;;;;;;7.65;73.98;100950.83;1892708;76;21115;-58
2022/02/25 06:58:21;;;;;;;39.03;15.55;;;;;;;7.69;73.89;100949.89;1892760;76;21058;-58
2022/02/25 07:00:50;;;;;;;72.03;32.90;;;;;;;7.71;73.77;100944.16;1892656;76;21484;-59
2022/02/25 07:03:18;;;;;;;35.08;13.85;;;;;;;7.74;73.71;100947.99;1892587;76;21117;-59
2022/02/25 07:05:47;;;;;;;36.40;13.98;;;;;;;7.79;73.64;100948.36;1892570;76;21058;-59
2022/02/25 07:08:16;;;;;;;39.13;12.82;;;;;;;7.79;73.52;100947.05;1892598;76;21057;-59
2022/02/25 07:10:44;;;;;;;40.92;18.20;;;;;;;7.78;73.35;100939.61;1892637;76;21037;-59
2022/02/25 07:13:13;;;;;;;38.63;13.90;;;;;;;7.77;73.15;100939.67;1892679;76;21124;-58
2022/02/25 07:15:42;;;;;;;26.77;11.68;;;;;;;7.80;73.04;100933.02;1892580;76;21058;-59
2022/02/25 07:18:15;;;;;;;42.15;14.35;;;;;;;7.81;72.83;100923.81;1892591;76;21557;-58
2022/02/25 07:20:42;;;;;;;33.08;11.80;;;;;;;7.83;72.65;100929.88;1892490;76;21089;-58
2022/02/25 07:23:12;;;;;;;35.60;13.22;;;;;;;7.84;72.46;100921.13;1892997;75;21089;-59
2022/02/25 07:25:42;;;;;;;38.98;14.40;;;;;;;7.85;72.28;100908.88;1895489;76;21108;-59
2022/02/25 07:28:11;;;;;;;41.75;14.00;;;;;;;7.87;72.10;100913.16;1895416;76;21538;-59
2022/02/25 07:30:40;;;;;;;37.67;13.65;;;;;;;7.91;72.00;100903.46;1895429;76;21086;-59
2022/02/25 07:33:09;;;;;;;31.23;12.73;;;;;;;7.96;71.76;100908.60;1895357;76;21570;-59
2022/02/25 07:35:38;;;;;;;32.42;10.93;;;;;;;8.03;71.66;100902.30;1895481;76;21135;-59
2022/02/25 07:38:06;;;;;;;37.17;12.47;;;;;;;8.09;71.44;100904.30;1895374;76;21136;-58
2022/02/25 07:40:36;;;;;;;35.52;12.93;;;;;;;8.16;71.27;100896.29;1895385;76;21133;-57
2022/02/25 07:43:05;;;;;;;35.68;13.38;;;;;;;8.27;71.10;100896.40;1895419;76;21113;-57
2022/02/25 07:45:34;;;;;;;34.95;12.05;;;;;;;8.42;70.95;100896.47;1895325;76;21016;-58
2022/02/25 07:48:05;;;;;;;31.00;12.65;;;;;;;8.54;70.70;100903.58;1895390;76;21418;-58
2022/02/25 07:50:34;;;;;;;33.70;12.68;;;;;;;8.53;70.22;100896.63;1895630;76;21033;-58
2022/02/25 07:53:03;;;;;;;43.00;14.23;;;;;;;8.55;70.00;100893.51;1895529;76;21030;-57
2022/02/25 07:55:31;;;;;;;39.92;13.05;;;;;;;8.59;69.81;100898.61;1895426;76;21119;-58
2022/02/25 07:58:00;;;;;;;37.05;14.03;;;;;;;8.66;69.73;100887.04;1895311;76;21070;-58
2022/02/25 08:00:29;;;;;;;31.45;12.55;;;;;;;8.77;69.57;100881.48;1895379;76;21117;-58
2022/02/25 08:02:58;;;;;;;32.93;12.23;;;;;;;8.83;69.28;100881.29;1895431;76;21054;-57
2022/02/25 08:05:27;;;;;;;18.92;9.55;;;;;;;8.89;69.00;100881.59;1895512;76;21522;-57
2022/02/25 08:07:58;;;;;;;31.42;12.40;;;;;;;8.95;68.52;100883.17;1895500;76;21162;-58
2022/02/25 08:10:27;;;;;;;26.87;12.07;;;;;;;8.95;68.34;100881.86;1895343;76;21034;-58
2022/02/25 08:12:55;;;;;;;28.05;11.38;;;;;;;8.99;68.32;100877.77;1895410;76;21437;-58
2022/02/25 08:15:24;;;;;;;30.27;11.25;;;;;;;9.03;68.25;100874.59;1895398;76;21104;-58
2022/02/25 08:17:54;;;;;;;28.62;11.60;;;;;;;9.05;68.08;100876.72;1895363;76;21139;-58
2022/02/25 08:20:23;;;;;;;27.20;10.48;;;;;;;9.05;67.77;100878.03;1895593;76;21104;-58
2022/02/25 08:22:56;;;;;;;16.93;6.90;;;;;;;9.01;67.53;100876.41;1895425;76;21049;-58
2022/02/25 08:25:22;;;;;;;28.07;11.73;;;;;;;8.98;67.53;100864.67;1891703;75;21165;-57
2022/02/25 08:27:52;;;;;;;27.77;10.82;;;;;;;8.93;67.42;100858.27;1891163;76;21037;-58
2022/02/25 08:30:21;;;;;;;29.45;11.83;;;;;;;8.98;67.26;100843.23;1891090;76;21119;-58
2022/02/25 08:32:51;;;;;;;24.98;9.98;;;;;;;9.14;67.38;100841.44;1891116;76;21133;-58
2022/02/25 08:35:21;;;;;;;21.27;8.40;;;;;;;9.36;67.16;100846.41;1891110;76;21127;-58
2022/02/25 08:37:50;;;;;;;36.55;13.05;;;;;;;9.41;66.46;100843.64;1891067;76;21500;-58
2022/02/25 08:40:19;;;;;;;24.55;10.78;;;;;;;9.34;66.38;100837.71;1890998;76;21054;-58
2022/02/25 08:42:47;;;;;;;30.52;12.40;;;;;;;9.35;66.65;100834.63;1891140;76;21042;-58
2022/02/25 08:45:16;;;;;;;35.75;13.18;;;;;;;9.22;66.37;100835.03;1891003;76;21167;-58
2022/02/25 08:47:46;;;;;;;29.85;12.23;;;;;;;9.16;66.63;100823.85;1891003;76;21054;-58
2022/02/25 08:50:17;;;;;;;26.90;12.68;;;;;;;9.13;66.62;100820.88;1890911;76;21034;-58
2022/02/25 08:52:48;;;;;;;30.92;12.30;;;;;;;9.12;66.68;100818.30;1891125;76;21089;-58
2022/02/25 08:55:18;;;;;;;22.27;9.50;;;;;;;9.10;66.78;100811.77;1890021;76;21489;-58
2022/02/25 08:57:48;;;;;;;32.95;14.53;;;;;;;9.15;66.79;100809.86;1891098;76;21050;-58
2022/02/25 09:00:20;;;;;;;27.37;12.50;;;;;;;9.28;66.61;100807.70;1891019;76;21029;-58
2022/02/25 09:02:49;;;;;;;30.15;12.35;;;;;;;9.42;66.47;100801.98;1890890;76;21030;-58
2022/02/25 09:05:18;;;;;;;31.70;13.18;;;;;;;9.54;66.46;100796.32;1890970;76;21484;-58
2022/02/25 09:07:47;;;;;;;29.63;13.48;;;;;;;9.62;65.93;100793.42;1890974;76;21058;-58
2022/02/25 09:10:17;;;;;;;31.02;13.58;;;;;;;9.73;65.73;100799.63;1890983;76;21104;-58
2022/02/25 09:12:47;;;;;;;29.48;13.80;;;;;;;9.91;65.26;100790.25;1891007;76;21088;-58
2022/02/25 09:15:25;;;;;;;33.78;12.80;;;;;;;10.02;65.07;100784.14;1890973;76;21054;-57
2022/02/25 09:17:57;;;;;;;35.50;15.93;;;;;;;10.04;64.53;100792.84;1890927;76;21539;-57
2022/02/25 09:20:28;;;;;;;29.55;13.53;;;;;;;10.16;64.19;100778.36;1891031;76;21109;-58
2022/02/25 09:22:58;;;;;;;31.73;12.18;;;;;;;10.61;63.23;100768.39;1891101;76;21042;-58
2022/02/25 09:25:28;;;;;;;34.92;12.73;;;;;;;11.04;61.71;100775.05;1901264;75;21131;-58
2022/02/25 09:27:58;;;;;;;27.37;12.30;;;;;;;11.12;61.33;100768.55;1913802;75;21116;-58
2022/02/25 09:30:27;;;;;;;25.97;10.60;;;;;;;11.18;60.88;100764.34;1914010;75;21569;-58
2022/02/25 09:32:57;;;;;;;25.90;12.10;;;;;;;11.21;61.18;100764.66;1913868;75;21178;-58
2022/02/25 09:35:26;;;;;;;26.25;11.55;;;;;;;11.41;60.95;100766.47;1913842;75;21510;-58
2022/02/25 09:37:56;;;;;;;25.30;12.05;;;;;;;11.31;61.12;100765.16;1913826;75;21073;-58
2022/02/25 09:40:25;;;;;;;29.87;14.35;;;;;;;10.99;60.90;100766.00;1913754;75;21210;-58
2022/02/25 09:42:54;;;;;;;27.95;12.85;;;;;;;10.82;61.28;100760.94;1913951;75;21484;-58
2022/02/25 09:45:23;;;;;;;29.70;12.07;;;;;;;10.81;61.41;100759.71;1913927;75;21106;-58
2022/02/25 09:47:52;;;;;;;28.38;12.15;;;;;;;10.84;61.50;100754.77;1913904;75;21537;-58
2022/02/25 09:50:22;;;;;;;31.17;12.58;;;;;;;10.95;61.36;100746.81;1913904;75;21057;-58
2022/02/25 09:52:51;;;;;;;31.75;12.00;;;;;;;11.38;60.64;100747.70;1913905;75;21032;-58
2022/02/25 09:55:26;;;;;;;27.40;11.83;;;;;;;11.69;60.11;100742.44;1913883;75;21033;-58
2022/02/25 09:57:57;;;;;;;23.62;10.10;;;;;;;12.35;58.93;100742.11;1914000;75;21041;-58
2022/02/25 10:00:25;;;;;;;33.58;14.98;;;;;;;12.91;58.28;100730.23;1914040;75;21041;-58
2022/02/25 10:02:56;;;;;;;32.00;11.10;;;;;;;13.30;56.77;100725.25;1913947;75;21103;-58
2022/02/25 10:05:27;;;;;;;37.20;13.62;;;;;;;13.49;55.98;100727.83;1913478;74;21037;-58
2022/02/25 10:07:57;;;;;;;31.77;14.23;;;;;;;13.97;55.78;100716.92;1913884;75;21092;-58
2022/02/25 10:10:29;;;;;;;28.52;13.13;;;;;;;14.05;55.16;100716.50;1914001;75;21424;-58
2022/02/25 10:13:01;;;;;;;36.13;14.35;;;;;;;13.59;55.81;100721.59;1913868;75;21511;-58
2022/02/25 10:15:33;;;;;;;35.88;14.58;;;;;;;13.07;56.42;100711.37;1913891;75;21053;-58
2022/02/25 10:18:07;;;;;;;35.03;13.15;;;;;;;12.92;56.84;100701.56;1913605;75;21206;-58
2022/02/25 10:20:36;;;;;;;33.65;15.23;;;;;;;12.89;57.05;100705.67;1893695;75;21790;-58
2022/02/25 10:23:23;;;;;;;20.77;9.85;;;;;;;12.72;56.99;100697.25;1913900;75;21053;-58
2022/02/25 10:25:52;;;;;;;34.80;16.35;;;;;;;12.53;56.22;100701.26;1905555;75;21548;-58
2022/02/25 10:28:31;;;;;;;29.23;13.40;;;;;;;12.49;56.64;100699.23;1890868;76;21461;-58
2022/02/25 10:31:30;;;;;;;28.45;12.78;;;;;;;12.99;56.24;100692.41;1890105;74;21108;-58
2022/02/25 10:34:13;;;;;;;24.92;12.10;;;;;;;13.16;55.18;100690.70;1890987;76;21038;-58
2022/02/25 10:36:50;;;;;;;27.15;11.90;;;;;;;13.65;54.47;100692.19;1891135;76;21127;-58
2022/02/25 10:39:29;;;;;;;34.88;14.87;;;;;;;14.57;53.11;100687.19;1891095;76;21112;-58
2022/02/25 10:42:12;;;;;;;22.60;10.48;;;;;;;15.14;52.30;100677.28;1891015;76;21019;-58
2022/02/25 10:44:46;;;;;;;29.87;13.03;;;;;;;15.40;51.23;100674.84;1891459;76;21156;-58
2022/02/25 10:47:30;;;;;;;31.60;13.85;;;;;;;15.68;50.88;100676.70;1890957;76;21113;-58
2022/02/25 10:50:12;;;;;;;33.58;15.23;;;;;;;16.08;49.57;100662.76;1889947;76;21014;-58
2022/02/25 10:52:51;;;;;;;20.75;10.58;;;;;;;16.09;48.37;100663.16;1890967;76;21022;-58
2022/02/25 10:55:20;;;;;;;26.82;12.58;;;;;;;16.37;48.79;100659.09;1889856;76;21637;-58
2022/02/25 10:57:52;;;;;;;25.95;11.53;;;;;;;16.50;48.27;100647.67;1891246;76;21065;-58
2022/02/25 11:00:22;;;;;;;28.05;11.90;;;;;;;16.40;47.41;100647.42;1891110;76;21037;-58
2022/02/25 11:02:53;;;;;;;32.78;13.93;;;;;;;15.79;48.34;100649.05;1890978;76;21002;-58
2022/02/25 11:05:27;;;;;;;30.75;12.82;;;;;;;15.43;49.43;100646.81;1891092;76;21014;-58
2022/02/25 11:07:58;;;;;;;29.37;14.40;;;;;;;15.49;49.46;100650.41;1890858;76;21054;-58
2022/02/25 11:10:29;;;;;;;34.53;16.05;;;;;;;15.48;49.13;100647.88;1890980;76;21105;-58
2022/02/25 11:13:01;;;;;;;19.55;10.38;;;;;;;15.35;49.33;100644.63;1890964;76;21538;-58
2022/02/25 11:15:32;;;;;;;34.73;15.15;;;;;;;15.49;49.12;100645.10;1891161;76;21085;-58
2022/02/25 11:18:01;;;;;;;34.65;14.87;;;;;;;15.23;49.36;100641.38;1890942;76;21128;-59
2022/02/25 11:20:35;;;;;;;22.80;10.10;;;;;;;14.98;50.08;100642.86;1890920;76;21141;-58
2022/02/25 11:23:07;;;;;;;24.20;10.95;;;;;;;14.64;50.09;100636.88;1890979;76;21077;-58
2022/02/25 11:25:38;;;;;;;22.70;9.83;;;;;;;14.43;50.51;100638.06;1891008;76;21042;-58
2022/02/25 11:28:07;;;;;;;22.80;9.90;;;;;;;14.41;50.54;100632.85;1912618;75;21135;-58
2022/02/25 11:31:06;;;;;;;28.02;13.38;;;;;;;14.03;50.96;100627.05;1913871;75;21480;-58
2022/02/25 11:33:35;;;;;;;26.87;13.25;;;;;;;13.58;51.62;100625.98;1913935;75;21041;-58
2022/02/25 11:36:10;;;;;;;33.08;13.80;;;;;;;13.09;52.67;100618.30;1913855;75;21467;-58